sensor_id;sensor_type;location;lat;lon;timestamp;pressure;altitude;pressure_sealevel;temperature;humidity
50696;BME280;36665;51.786;21.594;2024-01-06T00:02:03;89331.92;;;-3.29;100.00
50696;BME280;36665;51.786;21.594;2024-01-06T00:10:27;89333.05;;;-3.29;100.00
50696;BME280;36665;51.786;21.594;2024-01-06T00:18:56;89326.85;;;-3.31;100.00
50696;BME280;36665;51.786;21.594;2024-01-06T00:27:21;89336.69;;;-3.28;100.00
50696;BME280;36665;51.786;21.594;2024-01-06T00:35:46;89341.14;;;-3.27;100.00
50696;BME280;36665;51.786;21.594;2024-01-06T00:44:12;89348.66;;;-3.25;100.00
50696;BME280;36665;51.786;21.594;2024-01-06T00:52:39;89353.83;;;-3.23;100.00
50696;BME280;36665;51.786;21.594;2024-01-06T01:01:05;89367.96;;;-3.18;100.00
50696;BME280;36665;51.786;21.594;2024-01-06T01:09:29;89368.94;;;-3.18;100.00
50696;BME280;36665;51.786;21.594;2024-01-06T01:17:53;89374.01;;;-3.17;100.00
50696;BME280;36665;51.786;21.594;2024-01-06T01:26:18;89378.61;;;-3.16;100.00
50696;BME280;36665;51.786;21.594;2024-01-06T01:34:42;89390.42;;;-3.12;100.00
50696;BME280;36665;51.786;21.594;2024-01-06T01:43:06;89379.27;;;-3.14;100.00
50696;BME280;36665;51.786;21.594;2024-01-06T01:51:40;89363.75;;;-3.19;100.00
50696;BME280;36665;51.786;21.594;2024-01-06T02:00:14;89343.68;;;-3.25;100.00
50696;BME280;36665;51.786;21.594;2024-01-06T02:08:39;89334.42;;;-3.28;100.00
50696;BME280;36665;51.786;21.594;2024-01-06T02:17:05;89323.00;;;-3.31;100.00
50696;BME280;36665;51.786;21.594;2024-01-06T02:25:30;89316.35;;;-3.32;100.00
50696;BME280;36665;51.786;21.594;2024-01-06T02:33:55;89299.10;;;-3.37;100.00
50696;BME280;36665;51.786;21.594;2024-01-06T02:42:22;89288.23;;;-3.40;100.00
50696;BME280;36665;51.786;21.594;2024-01-06T02:51:08;89278.68;;;-3.43;100.00
50696;BME280;36665;51.786;21.594;2024-01-06T02:59:35;89274.83;;;-3.43;100.00
50696;BME280;36665;51.786;21.594;2024-01-06T03:08:00;89269.31;;;-3.45;100.00
50696;BME280;36665;51.786;21.594;2024-01-06T03:16:24;89267.89;;;-3.47;100.00
50696;BME280;36665;51.786;21.594;2024-01-06T03:24:50;89251.86;;;-3.50;100.00
50696;BME280;36665;51.786;21.594;2024-01-06T03:33:16;89250.34;;;-3.51;100.00
50696;BME280;36665;51.786;21.594;2024-01-06T03:41:42;89249.45;;;-3.51;100.00
50696;BME280;36665;51.786;21.594;2024-01-06T03:50:07;89252.54;;;-3.49;100.00
50696;BME280;36665;51.786;21.594;2024-01-06T03:58:33;89254.68;;;-3.49;100.00
50696;BME280;36665;51.786;21.594;2024-01-06T04:06:57;89260.98;;;-3.47;100.00
50696;BME280;36665;51.786;21.594;2024-01-06T04:15:22;89254.98;;;-3.49;100.00
50696;BME280;36665;51.786;21.594;2024-01-06T04:23:47;89260.63;;;-3.48;100.00
50696;BME280;36665;51.786;21.594;2024-01-06T04:32:10;89252.38;;;-3.50;100.00
50696;BME280;36665;51.786;21.594;2024-01-06T04:40:35;89253.50;;;-3.49;100.00
50696;BME280;36665;51.786;21.594;2024-01-06T04:48:59;89250.34;;;-3.51;100.00
50696;BME280;36665;51.786;21.594;2024-01-06T04:57:24;89249.40;;;-3.50;100.00
50696;BME280;36665;51.786;21.594;2024-01-06T05:05:49;89259.70;;;-3.48;100.00
50696;BME280;36665;51.786;21.594;2024-01-06T05:14:13;89260.30;;;-3.47;100.00
50696;BME280;36665;51.786;21.594;2024-01-06T05:22:37;89271.98;;;-3.45;100.00
50696;BME280;36665;51.786;21.594;2024-01-06T05:31:03;89272.28;;;-3.44;100.00
50696;BME280;36665;51.786;21.594;2024-01-06T05:39:32;89275.80;;;-3.43;100.00
50696;BME280;36665;51.786;21.594;2024-01-06T05:47:55;89278.68;;;-3.43;100.00
50696;BME280;36665;51.786;21.594;2024-01-06T05:56:25;89274.95;;;-3.43;100.00
50696;BME280;36665;51.786;21.594;2024-01-06T06:04:52;89279.18;;;-3.42;100.00
50696;BME280;36665;51.786;21.594;2024-01-06T06:13:19;89277.19;;;-3.42;100.00
50696;BME280;36665;51.786;21.594;2024-01-06T06:21:44;89275.40;;;-3.43;100.00
50696;BME280;36665;51.786;21.594;2024-01-06T06:30:13;89280.66;;;-3.42;100.00
50696;BME280;36665;51.786;21.594;2024-01-06T06:38:39;89276.63;;;-3.42;100.00
50696;BME280;36665;51.786;21.594;2024-01-06T06:47:03;89281.99;;;-3.41;100.00
50696;BME280;36665;51.786;21.594;2024-01-06T06:55:28;89275.86;;;-3.43;100.00
50696;BME280;36665;51.786;21.594;2024-01-06T07:03:52;89279.73;;;-3.41;100.00
50696;BME280;36665;51.786;21.594;2024-01-06T07:12:18;89281.98;;;-3.40;100.00
50696;BME280;36665;51.786;21.594;2024-01-06T07:20:42;89286.60;;;-3.39;100.00
50696;BME280;36665;51.786;21.594;2024-01-06T07:29:09;89313.73;;;-3.32;100.00
50696;BME280;36665;51.786;21.594;2024-01-06T07:37:34;89348.07;;;-3.22;100.00
50696;BME280;36665;51.786;21.594;2024-01-06T07:46:01;89377.88;;;-3.14;100.00
50696;BME280;36665;51.786;21.594;2024-01-06T07:54:28;89411.01;;;-3.04;100.00
50696;BME280;36665;51.786;21.594;2024-01-06T08:02:55;89428.06;;;-3.00;100.00
50696;BME280;36665;51.786;21.594;2024-01-06T08:11:21;89445.23;;;-2.94;100.00
50696;BME280;36665;51.786;21.594;2024-01-06T08:19:47;89453.27;;;-2.92;100.00
50696;BME280;36665;51.786;21.594;2024-01-06T08:28:13;89475.61;;;-2.88;100.00
50696;BME280;36665;51.786;21.594;2024-01-06T08:36:39;89486.73;;;-2.83;100.00
50696;BME280;36665;51.786;21.594;2024-01-06T08:45:05;89508.97;;;-2.78;100.00
50696;BME280;36665;51.786;21.594;2024-01-06T08:53:31;89552.80;;;-2.65;100.00
50696;BME280;36665;51.786;21.594;2024-01-06T09:01:56;89583.86;;;-2.56;100.00
50696;BME280;36665;51.786;21.594;2024-01-06T09:10:21;89602.78;;;-2.51;100.00
50696;BME280;36665;51.786;21.594;2024-01-06T09:18:47;89630.06;;;-2.42;100.00
50696;BME280;36665;51.786;21.594;2024-01-06T09:27:11;89637.19;;;-2.41;100.00
50696;BME280;36665;51.786;21.594;2024-01-06T09:35:39;89642.06;;;-2.39;100.00
50696;BME280;36665;51.786;21.594;2024-01-06T09:44:03;89624.02;;;-2.45;100.00
50696;BME280;36665;51.786;21.594;2024-01-06T09:52:29;89635.50;;;-2.42;100.00
50696;BME280;36665;51.786;21.594;2024-01-06T10:00:58;89640.22;;;-2.39;100.00
50696;BME280;36665;51.786;21.594;2024-01-06T10:09:27;89664.55;;;-2.34;100.00
50696;BME280;36665;51.786;21.594;2024-01-06T10:17:54;89666.13;;;-2.33;100.00
50696;BME280;36665;51.786;21.594;2024-01-06T10:26:20;89659.71;;;-2.34;100.00
50696;BME280;36665;51.786;21.594;2024-01-06T10:34:46;89614.77;;;-2.47;100.00
50696;BME280;36665;51.786;21.594;2024-01-06T10:43:11;89598.08;;;-2.52;100.00
50696;BME280;36665;51.786;21.594;2024-01-06T10:51:37;89619.66;;;-2.45;100.00
50696;BME280;36665;51.786;21.594;2024-01-06T11:00:02;89646.23;;;-2.39;100.00
50696;BME280;36665;51.786;21.594;2024-01-06T11:08:31;89652.70;;;-2.37;100.00
50696;BME280;36665;51.786;21.594;2024-01-06T11:16:57;89666.73;;;-2.33;100.00
50696;BME280;36665;51.786;21.594;2024-01-06T11:25:22;89660.48;;;-2.34;100.00
50696;BME280;36665;51.786;21.594;2024-01-06T11:33:47;89660.08;;;-2.35;100.00
50696;BME280;36665;51.786;21.594;2024-01-06T11:42:16;89620.98;;;-2.45;100.00
50696;BME280;36665;51.786;21.594;2024-01-06T11:50:41;89608.11;;;-2.50;100.00
50696;BME280;36665;51.786;21.594;2024-01-06T11:59:06;89604.38;;;-2.51;100.00
50696;BME280;36665;51.786;21.594;2024-01-06T12:07:30;89598.42;;;-2.52;100.00
50696;BME280;36665;51.786;21.594;2024-01-06T12:16:00;89602.11;;;-2.52;100.00
50696;BME280;36665;51.786;21.594;2024-01-06T12:24:27;89599.91;;;-2.52;100.00
50696;BME280;36665;51.786;21.594;2024-01-06T12:32:51;89587.55;;;-2.56;100.00
50696;BME280;36665;51.786;21.594;2024-01-06T12:41:18;89571.10;;;-2.60;100.00
50696;BME280;36665;51.786;21.594;2024-01-06T12:49:45;89583.73;;;-2.57;100.00
50696;BME280;36665;51.786;21.594;2024-01-06T12:58:12;89572.70;;;-2.60;100.00
50696;BME280;36665;51.786;21.594;2024-01-06T13:06:36;89572.12;;;-2.60;100.00
50696;BME280;36665;51.786;21.594;2024-01-06T13:15:00;89537.73;;;-2.70;100.00
50696;BME280;36665;51.786;21.594;2024-01-06T13:23:28;89492.57;;;-2.81;100.00
50696;BME280;36665;51.786;21.594;2024-01-06T13:31:54;89464.48;;;-2.88;100.00
50696;BME280;36665;51.786;21.594;2024-01-06T13:40:19;89468.32;;;-2.87;100.00
50696;BME280;36665;51.786;21.594;2024-01-06T13:48:46;89461.66;;;-2.89;100.00
50696;BME280;36665;51.786;21.594;2024-01-06T13:57:11;89462.22;;;-2.89;100.00
50696;BME280;36665;51.786;21.594;2024-01-06T14:05:35;89436.51;;;-2.96;100.00
50696;BME280;36665;51.786;21.594;2024-01-06T14:14:02;89409.92;;;-3.04;100.00
50696;BME280;36665;51.786;21.594;2024-01-06T14:22:26;89391.86;;;-3.10;100.00
50696;BME280;36665;51.786;21.594;2024-01-06T14:30:53;89379.77;;;-3.14;100.00
50696;BME280;36665;51.786;21.594;2024-01-06T14:39:18;89362.37;;;-3.18;100.00
50696;BME280;36665;51.786;21.594;2024-01-06T14:47:45;89343.23;;;-3.25;100.00
50696;BME280;36665;51.786;21.594;2024-01-06T14:56:14;89342.55;;;-3.25;100.00
50696;BME280;36665;51.786;21.594;2024-01-06T15:04:38;89321.45;;;-3.28;100.00
50696;BME280;36665;51.786;21.594;2024-01-06T15:13:03;89296.67;;;-3.36;100.00
50696;BME280;36665;51.786;21.594;2024-01-06T15:21:30;89286.27;;;-3.40;100.00
50696;BME280;36665;51.786;21.594;2024-01-06T15:29:57;89283.05;;;-3.40;100.00
50696;BME280;36665;51.786;21.594;2024-01-06T15:38:22;89282.05;;;-3.41;100.00
50696;BME280;36665;51.786;21.594;2024-01-06T15:46:47;89272.78;;;-3.43;100.00
50696;BME280;36665;51.786;21.594;2024-01-06T15:55:11;89256.80;;;-3.47;100.00
50696;BME280;36665;51.786;21.594;2024-01-06T16:03:36;89249.54;;;-3.48;100.00
50696;BME280;36665;51.786;21.594;2024-01-06T16:12:02;89235.27;;;-3.53;100.00
50696;BME280;36665;51.786;21.594;2024-01-06T16:20:28;89226.74;;;-3.57;100.00
50696;BME280;36665;51.786;21.594;2024-01-06T16:28:52;89211.39;;;-3.60;100.00
50696;BME280;36665;51.786;21.594;2024-01-06T16:37:17;89207.34;;;-3.60;100.00
50696;BME280;36665;51.786;21.594;2024-01-06T16:45:43;89210.21;;;-3.60;100.00
50696;BME280;36665;51.786;21.594;2024-01-06T16:54:08;89205.40;;;-3.62;100.00
50696;BME280;36665;51.786;21.594;2024-01-06T17:02:34;89202.29;;;-3.62;100.00
50696;BME280;36665;51.786;21.594;2024-01-06T17:10:58;89189.17;;;-3.66;100.00
50696;BME280;36665;51.786;21.594;2024-01-06T17:19:22;89186.06;;;-3.66;100.00
50696;BME280;36665;51.786;21.594;2024-01-06T17:27:47;89183.65;;;-3.67;100.00
50696;BME280;36665;51.786;21.594;2024-01-06T17:36:11;89172.61;;;-3.70;100.00
50696;BME280;36665;51.786;21.594;2024-01-06T17:44:37;89155.84;;;-3.76;100.00
50696;BME280;36665;51.786;21.594;2024-01-06T17:53:06;89133.84;;;-3.81;100.00
50696;BME280;36665;51.786;21.594;2024-01-06T18:01:31;89116.67;;;-3.85;100.00
50696;BME280;36665;51.786;21.594;2024-01-06T18:09:56;89104.10;;;-3.90;100.00
50696;BME280;36665;51.786;21.594;2024-01-06T18:18:20;89083.55;;;-3.95;100.00
50696;BME280;36665;51.786;21.594;2024-01-06T18:26:47;89072.16;;;-3.98;100.00
50696;BME280;36665;51.786;21.594;2024-01-06T18:35:13;89044.20;;;-4.07;100.00
50696;BME280;36665;51.786;21.594;2024-01-06T18:43:38;89027.52;;;-4.11;100.00
50696;BME280;36665;51.786;21.594;2024-01-06T18:52:05;89013.60;;;-4.14;100.00
50696;BME280;36665;51.786;21.594;2024-01-06T19:00:31;89001.03;;;-4.17;100.00
50696;BME280;36665;51.786;21.594;2024-01-06T19:08:55;88989.34;;;-4.21;100.00
50696;BME280;36665;51.786;21.594;2024-01-06T19:17:21;88971.11;;;-4.26;100.00
50696;BME280;36665;51.786;21.594;2024-01-06T19:25:49;88973.16;;;-4.25;100.00
50696;BME280;36665;51.786;21.594;2024-01-06T19:34:15;88964.98;;;-4.29;100.00
50696;BME280;36665;51.786;21.594;2024-01-06T19:42:42;88949.77;;;-4.33;100.00
50696;BME280;36665;51.786;21.594;2024-01-06T19:51:08;88938.38;;;-4.36;100.00
50696;BME280;36665;51.786;21.594;2024-01-06T19:59:32;88931.89;;;-4.37;100.00
50696;BME280;36665;51.786;21.594;2024-01-06T20:07:57;88926.49;;;-4.39;100.00
50696;BME280;36665;51.786;21.594;2024-01-06T20:16:22;88920.56;;;-4.40;100.00
50696;BME280;36665;51.786;21.594;2024-01-06T20:24:45;88904.42;;;-4.44;100.00
50696;BME280;36665;51.786;21.594;2024-01-06T20:33:10;88890.33;;;-4.49;100.00
50696;BME280;36665;51.786;21.594;2024-01-06T20:41:35;88871.20;;;-4.54;100.00
50696;BME280;36665;51.786;21.594;2024-01-06T20:50:00;88854.22;;;-4.60;100.00
50696;BME280;36665;51.786;21.594;2024-01-06T20:58:25;88821.51;;;-4.70;100.00
50696;BME280;36665;51.786;21.594;2024-01-06T21:06:52;88796.91;;;-4.76;100.00
50696;BME280;36665;51.786;21.594;2024-01-06T21:15:17;88772.64;;;-4.83;100.00
50696;BME280;36665;51.786;21.594;2024-01-06T21:23:42;88762.59;;;-4.86;100.00
50696;BME280;36665;51.786;21.594;2024-01-06T21:32:17;88742.39;;;-4.91;100.00
50696;BME280;36665;51.786;21.594;2024-01-06T21:40:45;88721.17;;;-4.98;100.00
50696;BME280;36665;51.786;21.594;2024-01-06T21:49:10;88712.21;;;-5.00;100.00
50696;BME280;36665;51.786;21.594;2024-01-06T21:57:35;88678.16;;;-5.10;100.00
50696;BME280;36665;51.786;21.594;2024-01-06T22:06:00;88657.82;;;-5.15;100.00
50696;BME280;36665;51.786;21.594;2024-01-06T22:14:24;88640.08;;;-5.20;100.00
50696;BME280;36665;51.786;21.594;2024-01-06T22:22:49;88630.92;;;-5.23;100.00
50696;BME280;36665;51.786;21.594;2024-01-06T22:31:16;88609.67;;;-5.29;100.00
50696;BME280;36665;51.786;21.594;2024-01-06T22:39:51;88591.73;;;-5.34;100.00
50696;BME280;36665;51.786;21.594;2024-01-06T22:48:17;88565.27;;;-5.40;100.00
50696;BME280;36665;51.786;21.594;2024-01-06T22:56:42;88549.80;;;-5.45;100.00
50696;BME280;36665;51.786;21.594;2024-01-06T23:05:08;88528.61;;;-5.51;100.00
50696;BME280;36665;51.786;21.594;2024-01-06T23:13:32;88531.95;;;-5.51;100.00
50696;BME280;36665;51.786;21.594;2024-01-06T23:21:58;88516.14;;;-5.54;100.00
50696;BME280;36665;51.786;21.594;2024-01-06T23:30:22;88499.64;;;-5.59;100.00
50696;BME280;36665;51.786;21.594;2024-01-06T23:38:47;88472.82;;;-5.67;100.00
50696;BME280;36665;51.786;21.594;2024-01-06T23:47:14;88444.88;;;-5.75;100.00
50696;BME280;36665;51.786;21.594;2024-01-06T23:55:43;88424.91;;;-5.79;100.00
